DLH5SD EDDF-EGLL
Flight info
| Callsign | DLH5SD |
|---|---|
| Flight time | 1h 7m |
| Altitude | 38000 |
| Route | OBOKA6N/25C OBOKA Z29 TORNU DCT ABNED L980 LOGAN |
| Aircraft | A346/H-VGDW/C |
Departure
| Time | 2026-04-15 21:10 |
|---|---|
| Airport | Frankfurt Main Airport (EDDF) |
Arrival
| Time | 2026-04-15 22:17 |
|---|---|
| Airport | London Heathrow Airport (EGLL) |
| Time | Latitude | Longitude | Altitude | Speed | Heading |
|---|---|---|---|---|---|
| 2026-04-15 20:57 | 50.04787 | 8.58037 | 381 ft | 0 kts | 237° |
| 2026-04-15 20:59 | 50.04780 | 8.58021 | 381 ft | 7 kts | 234° |
| 2026-04-15 20:59 | 50.04723 | 8.57977 | 385 ft | 11 kts | 187° |
| 2026-04-15 20:59 | 50.04657 | 8.57994 | 384 ft | 0 kts | 162° |
| 2026-04-15 21:00 | 50.04647 | 8.57999 | 382 ft | 4 kts | 162° |
| 2026-04-15 21:00 | 50.04613 | 8.58017 | 384 ft | 6 kts | 161° |
| 2026-04-15 21:00 | 50.04584 | 8.58032 | 383 ft | 0 kts | 161° |
| 2026-04-15 21:00 | 50.04583 | 8.58032 | 383 ft | 0 kts | 161° |
| 2026-04-15 21:01 | 50.04583 | 8.58033 | 383 ft | 0 kts | 160° |
| 2026-04-15 21:01 | 50.04576 | 8.58048 | 385 ft | 4 kts | 112° |
| 2026-04-15 21:01 | 50.04574 | 8.58120 | 383 ft | 9 kts | 82° |
| 2026-04-15 21:01 | 50.04593 | 8.58226 | 383 ft | 11 kts | 71° |
| 2026-04-15 21:02 | 50.04621 | 8.58353 | 382 ft | 9 kts | 71° |
| 2026-04-15 21:02 | 50.04646 | 8.58460 | 383 ft | 10 kts | 76° |
| 2026-04-15 21:02 | 50.04623 | 8.58564 | 381 ft | 12 kts | 142° |
| 2026-04-15 21:02 | 50.04555 | 8.58613 | 381 ft | 8 kts | 162° |
| 2026-04-15 21:03 | 50.04504 | 8.58599 | 383 ft | 8 kts | 219° |
| 2026-04-15 21:03 | 50.04487 | 8.58566 | 384 ft | 0 kts | 240° |
| 2026-04-15 21:04 | 50.04487 | 8.58565 | 384 ft | 0 kts | 242° |
| 2026-04-15 21:07 | 50.04487 | 8.58564 | 384 ft | 0 kts | 243° |
| 2026-04-15 21:09 | 50.04469 | 8.58501 | 381 ft | 30 kts | 248° |
| 2026-04-15 21:09 | 50.04304 | 8.57811 | 377 ft | 103 kts | 249° |
| 2026-04-15 21:10 | 50.03976 | 8.56454 | 371 ft | 162 kts | 249° |
| 2026-04-15 21:10 | 50.03567 | 8.54684 | 792 ft | 179 kts | 249° |
| 2026-04-15 21:10 | 50.03153 | 8.52835 | 1497 ft | 182 kts | 249° |
| 2026-04-15 21:10 | 50.02641 | 8.51038 | 2254 ft | 183 kts | 234° |
| 2026-04-15 21:11 | 50.01637 | 8.49759 | 2788 ft | 196 kts | 204° |
| 2026-04-15 21:11 | 50.00234 | 8.49446 | 3225 ft | 215 kts | 181° |
| 2026-04-15 21:11 | 49.98668 | 8.49349 | 3681 ft | 235 kts | 186° |
| 2026-04-15 21:11 | 49.96973 | 8.49103 | 4229 ft | 253 kts | 189° |
| 2026-04-15 21:12 | 49.95302 | 8.48280 | 4779 ft | 258 kts | 210° |
| 2026-04-15 21:12 | 49.93869 | 8.46574 | 5128 ft | 265 kts | 224° |
| 2026-04-15 21:12 | 49.92546 | 8.44565 | 6068 ft | 265 kts | 225° |
| 2026-04-15 21:12 | 49.91240 | 8.42561 | 7118 ft | 264 kts | 225° |
| 2026-04-15 21:13 | 49.90042 | 8.40387 | 7998 ft | 268 kts | 242° |
| 2026-04-15 21:13 | 49.89546 | 8.37601 | 8900 ft | 272 kts | 268° |
| 2026-04-15 21:13 | 49.89632 | 8.34650 | 9896 ft | 275 kts | 273° |
| 2026-04-15 21:13 | 49.89733 | 8.31665 | 10780 ft | 281 kts | 272° |
| 2026-04-15 21:14 | 49.89836 | 8.28542 | 11389 ft | 298 kts | 272° |
| 2026-04-15 21:14 | 49.90168 | 8.25313 | 11890 ft | 318 kts | 289° |
| 2026-04-15 21:14 | 49.91254 | 8.22201 | 12413 ft | 338 kts | 302° |
| 2026-04-15 21:14 | 49.92629 | 8.19146 | 12954 ft | 350 kts | 305° |
| 2026-04-15 21:15 | 49.94176 | 8.16190 | 13180 ft | 354 kts | 310° |
| 2026-04-15 21:15 | 49.95920 | 8.13471 | 13183 ft | 356 kts | 316° |
| 2026-04-15 21:15 | 49.97793 | 8.10954 | 13186 ft | 356 kts | 317° |
| 2026-04-15 21:15 | 49.99686 | 8.08468 | 13186 ft | 356 kts | 317° |
| 2026-04-15 21:16 | 50.01585 | 8.05967 | 13225 ft | 360 kts | 317° |
| 2026-04-15 21:16 | 50.03494 | 8.03433 | 13794 ft | 369 kts | 317° |
| 2026-04-15 21:16 | 50.05440 | 8.00842 | 14875 ft | 366 kts | 317° |
| 2026-04-15 21:16 | 50.07375 | 7.98255 | 15880 ft | 367 kts | 317° |
| 2026-04-15 21:17 | 50.09319 | 7.95648 | 16753 ft | 372 kts | 317° |
| 2026-04-15 21:17 | 50.11289 | 7.92998 | 17618 ft | 376 kts | 317° |
| 2026-04-15 21:17 | 50.13284 | 7.90312 | 18479 ft | 380 kts | 317° |
| 2026-04-15 21:17 | 50.15297 | 7.87598 | 19197 ft | 385 kts | 316° |
| 2026-04-15 21:18 | 50.17331 | 7.84854 | 19906 ft | 389 kts | 316° |
| 2026-04-15 21:18 | 50.19392 | 7.82070 | 20634 ft | 394 kts | 316° |
| 2026-04-15 21:18 | 50.21445 | 7.79292 | 21316 ft | 398 kts | 316° |
| 2026-04-15 21:18 | 50.23587 | 7.76494 | 22032 ft | 404 kts | 319° |
| 2026-04-15 21:19 | 50.25921 | 7.73972 | 22757 ft | 412 kts | 324° |
| 2026-04-15 21:19 | 50.28450 | 7.71797 | 23483 ft | 419 kts | 330° |
| 2026-04-15 21:19 | 50.31127 | 7.69884 | 24085 ft | 425 kts | 332° |
| 2026-04-15 21:19 | 50.33858 | 7.68030 | 24648 ft | 430 kts | 333° |
| 2026-04-15 21:20 | 50.36612 | 7.66170 | 25234 ft | 433 kts | 333° |
| 2026-04-15 21:20 | 50.39389 | 7.64281 | 25840 ft | 436 kts | 332° |
| 2026-04-15 21:20 | 50.42185 | 7.62366 | 26455 ft | 440 kts | 332° |
| 2026-04-15 21:20 | 50.44961 | 7.60456 | 27059 ft | 443 kts | 332° |
| 2026-04-15 21:21 | 50.47798 | 7.58500 | 27649 ft | 447 kts | 332° |
| 2026-04-15 21:21 | 50.50654 | 7.56527 | 28258 ft | 451 kts | 332° |
| 2026-04-15 21:21 | 50.53520 | 7.54471 | 28795 ft | 453 kts | 329° |
| 2026-04-15 21:21 | 50.56324 | 7.52185 | 29335 ft | 455 kts | 326° |
| 2026-04-15 21:22 | 50.59059 | 7.49651 | 29885 ft | 457 kts | 323° |
| 2026-04-15 21:22 | 50.61750 | 7.46944 | 30430 ft | 460 kts | 322° |
| 2026-04-15 21:22 | 50.64440 | 7.44173 | 30900 ft | 462 kts | 322° |
| 2026-04-15 21:22 | 50.67073 | 7.41404 | 31514 ft | 460 kts | 320° |
| 2026-04-15 21:23 | 50.69598 | 7.38340 | 32177 ft | 455 kts | 315° |
| 2026-04-15 21:23 | 50.71930 | 7.34999 | 32811 ft | 451 kts | 310° |
| 2026-04-15 21:23 | 50.74062 | 7.31402 | 33430 ft | 447 kts | 306° |
| 2026-04-15 21:23 | 50.75993 | 7.27569 | 34077 ft | 443 kts | 301° |
| 2026-04-15 21:24 | 50.77705 | 7.23546 | 34610 ft | 439 kts | 296° |
| 2026-04-15 21:24 | 50.79205 | 7.19354 | 35116 ft | 436 kts | 292° |
| 2026-04-15 21:24 | 50.80604 | 7.15093 | 35604 ft | 436 kts | 292° |
| 2026-04-15 21:24 | 50.81983 | 7.10819 | 36090 ft | 435 kts | 292° |
| 2026-04-15 21:25 | 50.83339 | 7.06613 | 36564 ft | 435 kts | 292° |
| 2026-04-15 21:25 | 50.84719 | 7.02336 | 36963 ft | 436 kts | 292° |
| 2026-04-15 21:25 | 50.86106 | 6.98043 | 37285 ft | 438 kts | 292° |
| 2026-04-15 21:25 | 50.87498 | 6.93730 | 37571 ft | 440 kts | 292° |
| 2026-04-15 21:26 | 50.88894 | 6.89397 | 37856 ft | 442 kts | 292° |
| 2026-04-15 21:26 | 50.90291 | 6.85048 | 38121 ft | 444 kts | 292° |
| 2026-04-15 21:26 | 50.91697 | 6.80666 | 38148 ft | 445 kts | 292° |
| 2026-04-15 21:27 | 50.94505 | 6.71890 | 38162 ft | 446 kts | 292° |
| 2026-04-15 21:27 | 50.97289 | 6.63160 | 38163 ft | 446 kts | 291° |
| 2026-04-15 21:28 | 51.00085 | 6.54359 | 38161 ft | 446 kts | 291° |
| 2026-04-15 21:28 | 51.02872 | 6.45553 | 38154 ft | 446 kts | 291° |
| 2026-04-15 21:29 | 51.05655 | 6.36724 | 38157 ft | 446 kts | 291° |
| 2026-04-15 21:29 | 51.08431 | 6.27890 | 38160 ft | 446 kts | 291° |
| 2026-04-15 21:30 | 51.11180 | 6.19102 | 38160 ft | 446 kts | 291° |
| 2026-04-15 21:30 | 51.13654 | 6.10073 | 38160 ft | 443 kts | 285° |
| 2026-04-15 21:31 | 51.16283 | 5.96038 | 38156 ft | 440 kts | 280° |
| 2026-04-15 21:32 | 51.18806 | 5.82000 | 38153 ft | 443 kts | 285° |
| 2026-04-15 21:32 | 51.21104 | 5.72829 | 38147 ft | 445 kts | 288° |
| 2026-04-15 21:33 | 51.23508 | 5.63713 | 38142 ft | 445 kts | 288° |
| 2026-04-15 21:33 | 51.25905 | 5.54597 | 38146 ft | 445 kts | 288° |
| 2026-04-15 21:34 | 51.28295 | 5.45461 | 38134 ft | 445 kts | 287° |
| 2026-04-15 21:34 | 51.30662 | 5.36376 | 38133 ft | 445 kts | 287° |
| 2026-04-15 21:35 | 51.33038 | 5.27218 | 38137 ft | 445 kts | 287° |
| 2026-04-15 21:35 | 51.35407 | 5.18045 | 38157 ft | 446 kts | 287° |
| 2026-04-15 21:36 | 51.37770 | 5.08861 | 38159 ft | 446 kts | 287° |
| 2026-04-15 21:36 | 51.40109 | 4.99734 | 38152 ft | 446 kts | 287° |
| 2026-04-15 21:37 | 51.42457 | 4.90531 | 38146 ft | 446 kts | 287° |
| 2026-04-15 21:37 | 51.44803 | 4.81303 | 38141 ft | 446 kts | 287° |
| 2026-04-15 21:38 | 51.47141 | 4.72067 | 38142 ft | 446 kts | 287° |
| 2026-04-15 21:38 | 51.49470 | 4.62824 | 38136 ft | 447 kts | 287° |
| 2026-04-15 21:39 | 51.51781 | 4.53619 | 38128 ft | 447 kts | 287° |
| 2026-04-15 21:39 | 51.54099 | 4.44345 | 38143 ft | 447 kts | 287° |
| 2026-04-15 21:40 | 51.56412 | 4.35057 | 38141 ft | 447 kts | 286° |
| 2026-04-15 21:40 | 51.58718 | 4.25755 | 38136 ft | 447 kts | 286° |
| 2026-04-15 21:41 | 51.61002 | 4.16501 | 38130 ft | 448 kts | 286° |
| 2026-04-15 21:41 | 51.63295 | 4.07170 | 38133 ft | 448 kts | 286° |
| 2026-04-15 21:42 | 51.65583 | 3.97822 | 38134 ft | 448 kts | 286° |
| 2026-04-15 21:42 | 51.67864 | 3.88465 | 38136 ft | 448 kts | 286° |
| 2026-04-15 21:43 | 51.70126 | 3.79145 | 38135 ft | 449 kts | 286° |
| 2026-04-15 21:43 | 51.72394 | 3.69763 | 38134 ft | 449 kts | 286° |
| 2026-04-15 21:44 | 51.74658 | 3.60353 | 38132 ft | 449 kts | 286° |
| 2026-04-15 21:44 | 51.76914 | 3.50934 | 38127 ft | 449 kts | 286° |
| 2026-04-15 21:45 | 51.79163 | 3.41504 | 38131 ft | 449 kts | 286° |
| 2026-04-15 21:45 | 51.81388 | 3.32128 | 38131 ft | 449 kts | 285° |
| 2026-04-15 21:46 | 51.83147 | 3.22486 | 38130 ft | 444 kts | 278° |
| 2026-04-15 21:46 | 51.83695 | 3.17577 | 37921 ft | 442 kts | 274° |
| 2026-04-15 21:46 | 51.84018 | 3.12657 | 37640 ft | 437 kts | 270° |
| 2026-04-15 21:46 | 51.84123 | 3.07780 | 37316 ft | 431 kts | 266° |
| 2026-04-15 21:47 | 51.84018 | 3.02958 | 36935 ft | 425 kts | 263° |
| 2026-04-15 21:47 | 51.83759 | 2.98219 | 36501 ft | 421 kts | 262° |
| 2026-04-15 21:47 | 51.83485 | 2.93574 | 36011 ft | 419 kts | 262° |
| 2026-04-15 21:47 | 51.83203 | 2.88886 | 35501 ft | 417 kts | 261° |
| 2026-04-15 21:48 | 51.82919 | 2.84219 | 34989 ft | 416 kts | 261° |
| 2026-04-15 21:48 | 51.82634 | 2.79558 | 34467 ft | 416 kts | 261° |
| 2026-04-15 21:48 | 51.82347 | 2.74901 | 33898 ft | 416 kts | 261° |
| 2026-04-15 21:48 | 51.82057 | 2.70248 | 33298 ft | 414 kts | 262° |
| 2026-04-15 21:49 | 51.81767 | 2.65620 | 32725 ft | 412 kts | 262° |
| 2026-04-15 21:49 | 51.81476 | 2.61015 | 32167 ft | 411 kts | 262° |
| 2026-04-15 21:49 | 51.81186 | 2.56426 | 31660 ft | 410 kts | 262° |
| 2026-04-15 21:49 | 51.80896 | 2.51892 | 31131 ft | 411 kts | 262° |
| 2026-04-15 21:50 | 51.80601 | 2.47284 | 30552 ft | 411 kts | 263° |
| 2026-04-15 21:50 | 51.80304 | 2.42687 | 29912 ft | 411 kts | 263° |
| 2026-04-15 21:50 | 51.80008 | 2.38090 | 29297 ft | 409 kts | 263° |
| 2026-04-15 21:50 | 51.79713 | 2.33529 | 28939 ft | 407 kts | 263° |
| 2026-04-15 21:51 | 51.79417 | 2.28994 | 28522 ft | 404 kts | 263° |
| 2026-04-15 21:51 | 51.79122 | 2.24490 | 28101 ft | 401 kts | 263° |
| 2026-04-15 21:51 | 51.78831 | 2.20089 | 27683 ft | 398 kts | 263° |
| 2026-04-15 21:51 | 51.78537 | 2.15664 | 27242 ft | 394 kts | 263° |
| 2026-04-15 21:52 | 51.78243 | 2.11268 | 26825 ft | 391 kts | 263° |
| 2026-04-15 21:52 | 51.77950 | 2.06919 | 26438 ft | 387 kts | 263° |
| 2026-04-15 21:52 | 51.77662 | 2.02663 | 26337 ft | 373 kts | 263° |
| 2026-04-15 21:52 | 51.77382 | 1.98562 | 26214 ft | 361 kts | 262° |
| 2026-04-15 21:53 | 51.77112 | 1.94607 | 26095 ft | 348 kts | 262° |
| 2026-04-15 21:53 | 51.76848 | 1.90783 | 25985 ft | 336 kts | 262° |
| 2026-04-15 21:53 | 51.76596 | 1.87138 | 25841 ft | 325 kts | 262° |
| 2026-04-15 21:53 | 51.76347 | 1.83562 | 25719 ft | 315 kts | 262° |
| 2026-04-15 21:54 | 51.76107 | 1.80116 | 25657 ft | 302 kts | 262° |
| 2026-04-15 21:54 | 51.75875 | 1.76811 | 25583 ft | 290 kts | 262° |
| 2026-04-15 21:54 | 51.75652 | 1.73641 | 25487 ft | 278 kts | 262° |
| 2026-04-15 21:54 | 51.75434 | 1.70578 | 25416 ft | 273 kts | 262° |
| 2026-04-15 21:55 | 51.75216 | 1.67525 | 25325 ft | 273 kts | 262° |
| 2026-04-15 21:55 | 51.74999 | 1.64481 | 25232 ft | 272 kts | 262° |
| 2026-04-15 21:55 | 51.74783 | 1.61464 | 25055 ft | 268 kts | 262° |
| 2026-04-15 21:55 | 51.74584 | 1.58453 | 24446 ft | 272 kts | 262° |
| 2026-04-15 21:56 | 51.74392 | 1.55398 | 23490 ft | 283 kts | 262° |
| 2026-04-15 21:56 | 51.74188 | 1.52174 | 22326 ft | 293 kts | 262° |
| 2026-04-15 21:56 | 51.73975 | 1.48847 | 21553 ft | 299 kts | 262° |
| 2026-04-15 21:56 | 51.73762 | 1.45510 | 21172 ft | 297 kts | 262° |
| 2026-04-15 21:57 | 51.73552 | 1.42238 | 20968 ft | 289 kts | 262° |
| 2026-04-15 21:57 | 51.73345 | 1.39031 | 20639 ft | 286 kts | 262° |
| 2026-04-15 21:57 | 51.73137 | 1.35846 | 20255 ft | 284 kts | 261° |
| 2026-04-15 21:57 | 51.72929 | 1.32679 | 19853 ft | 283 kts | 261° |
| 2026-04-15 21:58 | 51.72721 | 1.29521 | 19469 ft | 282 kts | 261° |
| 2026-04-15 21:58 | 51.72514 | 1.26379 | 19086 ft | 281 kts | 261° |
| 2026-04-15 21:58 | 51.72309 | 1.23294 | 18723 ft | 280 kts | 261° |
| 2026-04-15 21:58 | 51.72100 | 1.20169 | 18356 ft | 279 kts | 261° |
| 2026-04-15 21:59 | 51.71892 | 1.17058 | 17935 ft | 278 kts | 261° |
| 2026-04-15 21:59 | 51.71684 | 1.13966 | 17529 ft | 276 kts | 261° |
| 2026-04-15 21:59 | 51.71477 | 1.10889 | 17129 ft | 275 kts | 261° |
| 2026-04-15 21:59 | 51.71269 | 1.07833 | 16739 ft | 273 kts | 261° |
| 2026-04-15 22:00 | 51.71062 | 1.04794 | 16357 ft | 271 kts | 261° |
| 2026-04-15 22:00 | 51.70855 | 1.01774 | 15984 ft | 270 kts | 261° |
| 2026-04-15 22:00 | 51.70652 | 0.98814 | 15635 ft | 268 kts | 261° |
| 2026-04-15 22:00 | 51.70446 | 0.95822 | 15272 ft | 267 kts | 261° |
| 2026-04-15 22:01 | 51.70242 | 0.92853 | 14914 ft | 266 kts | 261° |
| 2026-04-15 22:01 | 51.70037 | 0.89894 | 14553 ft | 264 kts | 261° |
| 2026-04-15 22:01 | 51.69833 | 0.86959 | 14201 ft | 263 kts | 261° |
| 2026-04-15 22:01 | 51.69629 | 0.84035 | 13836 ft | 262 kts | 261° |
| 2026-04-15 22:02 | 51.69425 | 0.81125 | 13433 ft | 260 kts | 261° |
| 2026-04-15 22:02 | 51.69222 | 0.78240 | 13037 ft | 258 kts | 261° |
| 2026-04-15 22:02 | 51.69018 | 0.75366 | 12660 ft | 257 kts | 261° |
| 2026-04-15 22:02 | 51.68815 | 0.72505 | 12285 ft | 256 kts | 261° |
| 2026-04-15 22:03 | 51.68616 | 0.69695 | 11921 ft | 255 kts | 261° |
| 2026-04-15 22:03 | 51.68414 | 0.66859 | 11537 ft | 254 kts | 261° |
| 2026-04-15 22:03 | 51.68212 | 0.64035 | 11162 ft | 253 kts | 261° |
| 2026-04-15 22:03 | 51.68010 | 0.61221 | 10795 ft | 252 kts | 261° |
| 2026-04-15 22:04 | 51.67809 | 0.58426 | 10433 ft | 251 kts | 261° |
| 2026-04-15 22:04 | 51.67607 | 0.55635 | 10082 ft | 250 kts | 261° |
| 2026-04-15 22:04 | 51.67406 | 0.52863 | 9688 ft | 249 kts | 261° |
| 2026-04-15 22:04 | 51.67205 | 0.50098 | 9321 ft | 247 kts | 261° |
| 2026-04-15 22:05 | 51.67008 | 0.47394 | 8969 ft | 245 kts | 261° |
| 2026-04-15 22:05 | 51.66805 | 0.44665 | 8607 ft | 244 kts | 258° |
| 2026-04-15 22:05 | 51.66333 | 0.42060 | 8232 ft | 241 kts | 246° |
| 2026-04-15 22:05 | 51.65600 | 0.39647 | 7905 ft | 239 kts | 242° |
| 2026-04-15 22:06 | 51.64813 | 0.37292 | 7564 ft | 238 kts | 241° |
| 2026-04-15 22:06 | 51.64020 | 0.34959 | 7207 ft | 236 kts | 241° |
| 2026-04-15 22:06 | 51.63230 | 0.32642 | 6882 ft | 235 kts | 241° |
| 2026-04-15 22:06 | 51.62448 | 0.30340 | 6583 ft | 234 kts | 241° |
| 2026-04-15 22:07 | 51.61681 | 0.28076 | 6220 ft | 233 kts | 241° |
| 2026-04-15 22:07 | 51.60907 | 0.25793 | 5845 ft | 231 kts | 241° |
| 2026-04-15 22:07 | 51.60137 | 0.23527 | 5510 ft | 229 kts | 241° |
| 2026-04-15 22:07 | 51.59370 | 0.21282 | 5160 ft | 228 kts | 241° |
| 2026-04-15 22:08 | 51.58600 | 0.19056 | 4834 ft | 227 kts | 241° |
| 2026-04-15 22:08 | 51.57828 | 0.16839 | 4486 ft | 226 kts | 241° |
| 2026-04-15 22:08 | 51.57060 | 0.14642 | 4169 ft | 225 kts | 241° |
| 2026-04-15 22:08 | 51.56296 | 0.12452 | 3865 ft | 223 kts | 241° |
| 2026-04-15 22:09 | 51.55533 | 0.10281 | 3538 ft | 223 kts | 241° |
| 2026-04-15 22:09 | 51.54768 | 0.08121 | 3211 ft | 222 kts | 241° |
| 2026-04-15 22:09 | 51.54015 | 0.05995 | 2896 ft | 221 kts | 241° |
| 2026-04-15 22:09 | 51.53258 | 0.03856 | 2591 ft | 219 kts | 241° |
| 2026-04-15 22:10 | 51.52509 | 0.01741 | 2501 ft | 217 kts | 241° |
| 2026-04-15 22:10 | 51.51784 | -0.00295 | 2482 ft | 202 kts | 240° |
| 2026-04-15 22:10 | 51.51117 | -0.02178 | 2465 ft | 186 kts | 241° |
| 2026-04-15 22:10 | 51.50495 | -0.03936 | 2485 ft | 179 kts | 241° |
| 2026-04-15 22:11 | 51.49910 | -0.05691 | 2492 ft | 178 kts | 243° |
| 2026-04-15 22:11 | 51.49338 | -0.07454 | 2494 ft | 178 kts | 243° |
| 2026-04-15 22:11 | 51.48760 | -0.09214 | 2486 ft | 179 kts | 243° |
| 2026-04-15 22:11 | 51.48188 | -0.10961 | 2487 ft | 180 kts | 243° |
| 2026-04-15 22:12 | 51.47611 | -0.12743 | 2494 ft | 179 kts | 243° |
| 2026-04-15 22:12 | 51.47094 | -0.14560 | 2495 ft | 179 kts | 248° |
| 2026-04-15 22:12 | 51.46751 | -0.16479 | 2495 ft | 179 kts | 257° |
| 2026-04-15 22:12 | 51.46593 | -0.18474 | 2503 ft | 181 kts | 264° |
| 2026-04-15 22:13 | 51.46571 | -0.20498 | 2464 ft | 180 kts | 266° |
| 2026-04-15 22:13 | 51.46584 | -0.22415 | 2476 ft | 164 kts | 266° |
| 2026-04-15 22:13 | 51.46587 | -0.24202 | 2485 ft | 162 kts | 266° |
| 2026-04-15 22:13 | 51.46581 | -0.26035 | 2286 ft | 161 kts | 265° |
| 2026-04-15 22:14 | 51.46573 | -0.27754 | 2046 ft | 149 kts | 265° |
| 2026-04-15 22:14 | 51.46567 | -0.29319 | 1807 ft | 133 kts | 263° |
| 2026-04-15 22:14 | 51.46556 | -0.30793 | 1652 ft | 131 kts | 263° |
| 2026-04-15 22:14 | 51.46543 | -0.32252 | 1528 ft | 130 kts | 263° |
| 2026-04-15 22:15 | 51.46531 | -0.33709 | 1361 ft | 131 kts | 264° |
| 2026-04-15 22:15 | 51.46525 | -0.35179 | 1166 ft | 133 kts | 264° |
| 2026-04-15 22:15 | 51.46522 | -0.36677 | 970 ft | 136 kts | 265° |
| 2026-04-15 22:15 | 51.46515 | -0.38201 | 799 ft | 136 kts | 264° |
| 2026-04-15 22:16 | 51.46501 | -0.39721 | 598 ft | 140 kts | 265° |
| 2026-04-15 22:16 | 51.46503 | -0.41290 | 417 ft | 141 kts | 266° |
| 2026-04-15 22:16 | 51.46505 | -0.42863 | 178 ft | 140 kts | 265° |
| 2026-04-15 22:16 | 51.46489 | -0.44395 | 95 ft | 123 kts | 268° |
| 2026-04-15 22:17 | 51.46482 | -0.45456 | 92 ft | 79 kts | 270° |
| 2026-04-15 22:17 | 51.46483 | -0.46275 | 97 ft | 59 kts | 271° |
| 2026-04-15 22:17 | 51.46539 | -0.46719 | 99 ft | 30 kts | 292° |
| 2026-04-15 22:17 | 51.46639 | -0.46857 | 98 ft | 18 kts | 351° |
| 2026-04-15 22:18 | 51.46773 | -0.46860 | 98 ft | 22 kts | 0° |
| 2026-04-15 22:18 | 51.46937 | -0.46866 | 92 ft | 22 kts | 359° |
| 2026-04-15 22:18 | 51.47060 | -0.46870 | 96 ft | 19 kts | 359° |